Time;durP1;ratioP1;P1;durP2;ratioP2;P2;SDS_P1;SDS_P2;PMS_P1;PMS_P2;Temp;Humidity;BMP_temperature;BMP_pressure;BME280_temperature;BME280_humidity;BME280_pressure;Samples;Min_cycle;Max_cycle;Signal;HPM_P1;HPM_P2
2021/12/20 00:00:57;;;;;;;7.97;5.90;;;;;;;;;;4996167;28;20134;-75
2021/12/20 00:03:23;;;;;;;8.52;7.10;;;;;;;;;;5009901;28;20038;-76
2021/12/20 00:05:49;;;;;;;8.85;6.35;;;;;;;;;;5005731;28;20033;-77
2021/12/20 00:08:15;;;;;;;8.07;6.13;;;;;;;;;;5000633;28;20021;-78
2021/12/20 00:10:41;;;;;;;10.95;6.93;;;;;;;;;;5016582;28;20033;-77
2021/12/20 00:13:07;;;;;;;11.35;7.28;;;;;;;;;;5016175;28;20064;-75
2021/12/20 00:15:33;;;;;;;14.07;7.07;;;;;;;;;;5005973;28;20101;-76
2021/12/20 00:17:59;;;;;;;11.25;6.85;;;;;;;;;;5007426;28;20033;-76
2021/12/20 00:20:25;;;;;;;11.82;8.73;;;;;;;;;;5006621;28;20057;-74
2021/12/20 00:22:51;;;;;;;10.93;8.05;;;;;;;;;;4996024;28;20030;-77
2021/12/20 00:25:18;;;;;;;12.35;8.43;;;;;;;;;;4999092;28;20034;-77
2021/12/20 00:27:44;;;;;;;12.98;9.32;;;;;;;;;;5001453;28;20030;-74
2021/12/20 00:30:11;;;;;;;12.57;8.82;;;;;;;;;;5015660;28;20030;-76
2021/12/20 00:32:38;;;;;;;13.50;9.18;;;;;;;;;;5016545;28;20033;-76
2021/12/20 00:35:04;;;;;;;13.50;8.98;;;;;;;;;;5015237;28;20034;-77
2021/12/20 00:40:21;;;;;;;15.48;9.70;;;;;;;;;;4996886;28;20105;-76
2021/12/20 00:42:52;;;;;;;14.02;8.77;;;;;;;;;;4995951;28;20034;-74
2021/12/20 00:45:20;;;;;;;17.23;9.82;;;;;;;;;;4995623;28;20030;-75
2021/12/20 00:47:46;;;;;;;17.33;10.90;;;;;;;;;;5014555;28;20122;-77
2021/12/20 00:50:14;;;;;;;17.15;10.80;;;;;;;;;;5010921;28;20504;-75
2021/12/20 00:52:41;;;;;;;18.02;11.63;;;;;;;;;;5000905;28;20026;-74
2021/12/20 00:55:08;;;;;;;17.15;10.63;;;;;;;;;;5016026;28;20029;-75
2021/12/20 00:57:34;;;;;;;14.02;10.65;;;;;;;;;;5011735;28;20038;-75
2021/12/20 01:00:00;;;;;;;14.40;10.38;;;;;;;;;;5015926;28;20124;-74
2021/12/20 01:02:26;;;;;;;13.88;9.88;;;;;;;;;;5014708;28;20030;-76
2021/12/20 01:04:52;;;;;;;14.48;9.25;;;;;;;;;;5000667;28;20029;-76
2021/12/20 01:07:19;;;;;;;11.93;8.52;;;;;;;;;;4996205;28;20076;-76
2021/12/20 01:09:45;;;;;;;12.32;8.15;;;;;;;;;;5007371;28;20118;-76
2021/12/20 01:12:18;;;;;;;12.75;8.00;;;;;;;;;;5010863;28;20109;-75
2021/12/20 01:14:44;;;;;;;13.57;8.05;;;;;;;;;;4995489;28;20014;-76
2021/12/20 01:17:10;;;;;;;11.07;7.80;;;;;;;;;;4997098;28;20022;-75
2021/12/20 01:19:37;;;;;;;15.40;8.48;;;;;;;;;;5015433;28;20401;-75
2021/12/20 01:22:04;;;;;;;14.57;9.68;;;;;;;;;;5018100;28;20030;-76
2021/12/20 01:24:30;;;;;;;11.90;8.20;;;;;;;;;;5015182;28;20121;-74
2021/12/20 01:26:56;;;;;;;13.98;8.05;;;;;;;;;;4998522;28;20440;-76
2021/12/20 01:29:23;;;;;;;10.35;6.63;;;;;;;;;;4999309;28;20482;-76
2021/12/20 01:31:49;;;;;;;11.98;7.30;;;;;;;;;;5018113;28;20026;-75
2021/12/20 01:34:16;;;;;;;10.75;7.50;;;;;;;;;;5016315;28;20036;-73
2021/12/20 01:36:42;;;;;;;9.63;7.00;;;;;;;;;;4999979;28;20022;-77
2021/12/20 01:39:08;;;;;;;10.73;7.50;;;;;;;;;;4998268;28;20058;-76
2021/12/20 01:41:39;;;;;;;11.50;7.00;;;;;;;;;;4999400;28;20505;-74
2021/12/20 01:44:05;;;;;;;12.00;6.50;;;;;;;;;;4998466;28;20441;-75
2021/12/20 01:46:31;;;;;;;11.02;6.32;;;;;;;;;;4998340;28;20400;-75
2021/12/20 01:48:59;;;;;;;12.50;7.38;;;;;;;;;;4998854;28;20069;-75
2021/12/20 01:54:01;;;;;;;8.68;6.28;;;;;;;;;;5017934;28;20045;-77
2021/12/20 01:56:32;;;;;;;10.02;7.53;;;;;;;;;;4998991;28;20059;-74
2021/12/20 01:59:05;;;;;;;9.50;6.90;;;;;;;;;;5006125;28;20034;-75
2021/12/20 02:01:31;;;;;;;8.00;5.93;;;;;;;;;;5012050;28;20033;-74
2021/12/20 02:04:00;;;;;;;13.20;6.70;;;;;;;;;;5005254;28;20038;-77
2021/12/20 02:06:49;;;;;;;9.32;5.40;;;;;;;;;;4996699;28;20038;-76
2021/12/20 02:09:18;;;;;;;10.48;6.55;;;;;;;;;;4996174;28;20489;-77
2021/12/20 02:11:49;;;;;;;11.38;6.63;;;;;;;;;;4996734;28;20027;-75
2021/12/20 02:14:15;;;;;;;11.55;7.40;;;;;;;;;;5005650;28;20049;-75
2021/12/20 02:16:42;;;;;;;10.70;6.97;;;;;;;;;;5004405;28;20026;-76
2021/12/20 02:19:12;;;;;;;12.30;6.43;;;;;;;;;;4996565;28;20030;-74
2021/12/20 02:21:39;;;;;;;11.02;6.93;;;;;;;;;;4996571;28;20031;-75
2021/12/20 02:24:06;;;;;;;9.02;6.47;;;;;;;;;;4996154;28;20088;-77
2021/12/20 02:26:32;;;;;;;8.27;5.97;;;;;;;;;;5003947;28;20488;-75
2021/12/20 02:29:04;;;;;;;9.70;6.60;;;;;;;;;;5014174;28;20030;-76
2021/12/20 02:37:20;;;;;;;12.88;6.38;;;;;;;;;;4996303;28;20045;-75
2021/12/20 02:39:46;;;;;;;9.70;6.03;;;;;;;;;;5004925;28;20045;-76
2021/12/20 02:42:17;;;;;;;10.52;6.07;;;;;;;;;;5006317;28;20057;-75
2021/12/20 02:44:48;;;;;;;9.30;6.32;;;;;;;;;;4996510;28;20052;-75
2021/12/20 02:47:26;;;;;;;9.93;5.85;;;;;;;;;;5001110;28;20557;-75
2021/12/20 02:49:52;;;;;;;10.93;5.78;;;;;;;;;;5014894;28;20384;-76
2021/12/20 02:52:18;;;;;;;9.90;5.82;;;;;;;;;;5005732;28;20026;-75
2021/12/20 02:54:44;;;;;;;10.35;6.40;;;;;;;;;;5008658;28;20022;-76
2021/12/20 02:57:10;;;;;;;10.60;6.40;;;;;;;;;;5015501;28;20046;-76
2021/12/20 02:59:36;;;;;;;31.15;7.03;;;;;;;;;;5008441;28;20041;-75
2021/12/20 03:02:05;;;;;;;17.92;8.45;;;;;;;;;;5000529;28;20058;-77
2021/12/20 03:04:31;;;;;;;8.43;6.68;;;;;;;;;;4996092;28;20104;-77
2021/12/20 03:07:00;;;;;;;12.50;7.07;;;;;;;;;;5005697;28;20026;-76
2021/12/20 03:09:30;;;;;;;13.38;7.95;;;;;;;;;;4995979;28;20090;-77
2021/12/20 03:11:59;;;;;;;10.25;7.03;;;;;;;;;;5014493;28;20037;-74
2021/12/20 03:14:30;;;;;;;11.32;8.10;;;;;;;;;;5014985;28;20014;-76
2021/12/20 03:16:57;;;;;;;15.95;9.07;;;;;;;;;;4999304;28;20055;-75
2021/12/20 03:19:23;;;;;;;15.07;9.55;;;;;;;;;;4995648;28;20046;-75
2021/12/20 03:21:49;;;;;;;18.52;10.27;;;;;;;;;;5005697;28;20030;-75
2021/12/20 03:24:16;;;;;;;16.65;11.25;;;;;;;;;;5015125;28;20412;-76
2021/12/20 03:26:42;;;;;;;16.85;10.93;;;;;;;;;;5015796;28;20145;-76
2021/12/20 03:29:08;;;;;;;17.77;12.00;;;;;;;;;;5007077;28;20091;-75
2021/12/20 03:31:34;;;;;;;19.80;11.85;;;;;;;;;;5001860;28;20030;-76
2021/12/20 03:34:01;;;;;;;19.38;12.20;;;;;;;;;;5015191;28;20484;-78
2021/12/20 03:36:27;;;;;;;22.27;13.68;;;;;;;;;;5010058;28;20152;-77
2021/12/20 03:38:53;;;;;;;24.02;14.02;;;;;;;;;;4994343;28;20031;-77
2021/12/20 03:41:20;;;;;;;21.88;13.95;;;;;;;;;;4994564;28;20066;-75
2021/12/20 03:43:46;;;;;;;27.48;15.10;;;;;;;;;;4994312;28;20096;-76
2021/12/20 03:46:12;;;;;;;23.83;14.02;;;;;;;;;;5003756;28;20030;-75
2021/12/20 03:48:38;;;;;;;27.63;15.40;;;;;;;;;;4994727;28;20540;-75
2021/12/20 03:51:05;;;;;;;23.42;13.32;;;;;;;;;;4994672;28;20031;-76
2021/12/20 03:53:33;;;;;;;25.17;14.80;;;;;;;;;;5003940;28;20033;-76
2021/12/20 03:56:04;;;;;;;22.88;13.45;;;;;;;;;;5029846;28;20436;-77
2021/12/20 03:58:30;;;;;;;22.88;14.75;;;;;;;;;;5015045;28;20037;-75
2021/12/20 04:00:58;;;;;;;25.27;15.50;;;;;;;;;;4999890;28;20065;-74
2021/12/20 04:03:25;;;;;;;29.63;16.55;;;;;;;;;;4994678;28;20092;-75
2021/12/20 04:05:52;;;;;;;30.73;16.42;;;;;;;;;;4994853;28;20034;-77
2021/12/20 04:08:18;;;;;;;25.45;15.95;;;;;;;;;;4995614;28;20105;-74
2021/12/20 04:10:44;;;;;;;24.23;14.07;;;;;;;;;;4996046;28;20059;-76
2021/12/20 04:13:10;;;;;;;26.48;15.93;;;;;;;;;;4996836;28;20029;-77
2021/12/20 04:15:37;;;;;;;29.35;15.93;;;;;;;;;;5000834;28;20030;-76
2021/12/20 04:18:03;;;;;;;30.40;15.50;;;;;;;;;;4995427;28;20038;-76
2021/12/20 04:20:29;;;;;;;24.08;14.70;;;;;;;;;;4994651;28;20188;-77
2021/12/20 04:22:56;;;;;;;32.90;17.00;;;;;;;;;;4995576;28;20062;-75
2021/12/20 04:25:22;;;;;;;33.05;17.25;;;;;;;;;;4994445;28;20046;-76
2021/12/20 04:27:48;;;;;;;33.75;20.88;;;;;;;;;;5001478;28;20389;-75
2021/12/20 04:30:14;;;;;;;30.45;17.60;;;;;;;;;;5004192;28;20496;-75
2021/12/20 04:32:42;;;;;;;34.15;17.70;;;;;;;;;;4995688;28;20027;-76
2021/12/20 04:35:08;;;;;;;36.88;19.25;;;;;;;;;;4996092;28;20027;-75
2021/12/20 04:37:34;;;;;;;31.48;17.42;;;;;;;;;;5011404;28;20037;-76
2021/12/20 04:40:05;;;;;;;32.88;17.13;;;;;;;;;;5013711;28;20041;-75
2021/12/20 04:42:32;;;;;;;35.80;19.27;;;;;;;;;;4976085;28;20031;-76
2021/12/20 04:44:58;;;;;;;35.17;18.02;;;;;;;;;;5004346;28;20030;-75
2021/12/20 04:47:24;;;;;;;35.42;16.95;;;;;;;;;;5014185;28;20030;-76
2021/12/20 04:49:50;;;;;;;32.40;18.23;;;;;;;;;;5013926;28;20050;-76
2021/12/20 04:52:16;;;;;;;34.92;17.73;;;;;;;;;;4994730;28;20023;-78
2021/12/20 04:54:42;;;;;;;33.97;17.52;;;;;;;;;;4996308;28;20032;-74
2021/12/20 04:57:08;;;;;;;36.90;18.10;;;;;;;;;;5000040;28;20057;-76
2021/12/20 04:59:34;;;;;;;36.97;16.77;;;;;;;;;;5017510;28;20026;-77
2021/12/20 05:02:00;;;;;;;36.72;18.42;;;;;;;;;;5001860;28;20093;-77
2021/12/20 05:04:27;;;;;;;37.15;18.08;;;;;;;;;;4997834;28;20110;-76
2021/12/20 05:06:53;;;;;;;38.03;17.55;;;;;;;;;;4998114;28;20038;-76
2021/12/20 05:09:19;;;;;;;33.15;15.93;;;;;;;;;;4999902;28;20489;-74
2021/12/20 05:11:50;;;;;;;33.70;16.05;;;;;;;;;;4997522;28;20034;-77
2021/12/20 05:14:17;;;;;;;32.22;15.45;;;;;;;;;;4998636;28;20073;-76
2021/12/20 05:16:43;;;;;;;37.65;18.17;;;;;;;;;;4998001;28;20022;-76
2021/12/20 05:19:09;;;;;;;32.25;16.77;;;;;;;;;;5011842;28;20493;-76
2021/12/20 05:21:35;;;;;;;30.63;16.10;;;;;;;;;;4999391;28;20101;-76
2021/12/20 05:24:01;;;;;;;34.75;15.73;;;;;;;;;;5015226;28;20033;-73
2021/12/20 05:26:28;;;;;;;29.33;15.10;;;;;;;;;;5000207;28;20651;-75
2021/12/20 05:28:57;;;;;;;33.38;16.23;;;;;;;;;;5010029;28;20030;-76
2021/12/20 05:31:23;;;;;;;32.28;17.33;;;;;;;;;;5007158;28;20026;-75
2021/12/20 05:33:49;;;;;;;37.78;17.33;;;;;;;;;;4997316;28;20392;-73
2021/12/20 05:36:15;;;;;;;34.50;16.48;;;;;;;;;;4998444;28;20026;-75
2021/12/20 05:38:41;;;;;;;42.63;17.38;;;;;;;;;;4997492;28;20054;-74
2021/12/20 05:41:07;;;;;;;30.45;15.93;;;;;;;;;;5002728;28;20033;-76
2021/12/20 05:43:33;;;;;;;37.47;16.05;;;;;;;;;;4995632;28;20027;-76
2021/12/20 05:45:59;;;;;;;35.22;16.65;;;;;;;;;;4997153;28;20037;-76
2021/12/20 05:48:25;;;;;;;37.28;17.45;;;;;;;;;;5006830;28;20029;-76
2021/12/20 05:50:51;;;;;;;35.67;16.10;;;;;;;;;;4996009;28;20022;-76
2021/12/20 05:53:18;;;;;;;33.60;16.55;;;;;;;;;;4996299;28;20096;-76
2021/12/20 05:55:44;;;;;;;30.45;15.20;;;;;;;;;;4997429;28;20026;-76
2021/12/20 05:58:10;;;;;;;42.03;18.63;;;;;;;;;;4998182;28;20517;-75
2021/12/20 06:00:36;;;;;;;27.52;14.93;;;;;;;;;;5014036;28;20034;-75
2021/12/20 06:03:02;;;;;;;31.27;15.70;;;;;;;;;;4997161;28;20109;-76
2021/12/20 06:05:28;;;;;;;31.50;16.35;;;;;;;;;;4996789;28;20022;-76
2021/12/20 06:07:54;;;;;;;24.35;13.23;;;;;;;;;;4998533;28;20030;-75
2021/12/20 06:10:20;;;;;;;22.15;11.15;;;;;;;;;;4998290;28;20030;-76
2021/12/20 06:12:47;;;;;;;20.50;12.20;;;;;;;;;;4997314;28;20030;-78
2021/12/20 06:15:13;;;;;;;24.05;11.38;;;;;;;;;;5006569;28;20018;-76
2021/12/20 06:17:40;;;;;;;24.50;12.27;;;;;;;;;;5016950;28;20022;-76
2021/12/20 06:20:08;;;;;;;20.85;11.70;;;;;;;;;;5017202;28;20053;-75
2021/12/20 06:22:34;;;;;;;22.17;11.93;;;;;;;;;;5001445;28;20045;-77
2021/12/20 06:25:00;;;;;;;24.50;12.65;;;;;;;;;;5016943;28;20018;-75
2021/12/20 06:27:26;;;;;;;19.30;10.93;;;;;;;;;;5003415;28;20488;-75
2021/12/20 06:29:52;;;;;;;21.17;11.23;;;;;;;;;;4996069;28;20062;-76
2021/12/20 06:32:19;;;;;;;17.30;11.43;;;;;;;;;;5013542;28;20362;-75
2021/12/20 06:34:45;;;;;;;25.83;13.02;;;;;;;;;;5002808;28;20030;-77
2021/12/20 06:37:12;;;;;;;31.08;12.90;;;;;;;;;;4995988;28;20030;-76
2021/12/20 06:39:38;;;;;;;24.75;12.63;;;;;;;;;;4995346;28;20030;-75
2021/12/20 06:42:04;;;;;;;15.40;10.73;;;;;;;;;;4995837;28;20026;-74
2021/12/20 06:44:31;;;;;;;20.25;12.65;;;;;;;;;;5012790;28;20084;-76
2021/12/20 06:46:57;;;;;;;22.27;12.63;;;;;;;;;;5002910;28;20054;-76
2021/12/20 06:49:23;;;;;;;20.38;12.18;;;;;;;;;;4994578;28;20031;-75
2021/12/20 06:51:49;;;;;;;20.23;11.82;;;;;;;;;;5008941;28;20428;-75
2021/12/20 06:54:16;;;;;;;17.85;10.00;;;;;;;;;;5014807;28;20080;-75
2021/12/20 06:56:43;;;;;;;20.85;10.00;;;;;;;;;;5006463;28;20442;-75
2021/12/20 06:59:09;;;;;;;19.17;10.82;;;;;;;;;;4995056;28;20034;-76
2021/12/20 07:01:36;;;;;;;17.45;10.32;;;;;;;;;;4996513;28;20113;-76
2021/12/20 07:04:02;;;;;;;22.63;11.23;;;;;;;;;;4995390;28;20521;-76
2021/12/20 07:06:31;;;;;;;20.42;11.15;;;;;;;;;;4996214;28;20509;-75
2021/12/20 07:08:57;;;;;;;21.17;12.18;;;;;;;;;;5011194;28;20113;-76
2021/12/20 07:11:24;;;;;;;21.48;12.18;;;;;;;;;;4996857;28;20030;-75
2021/12/20 07:13:53;;;;;;;21.52;11.75;;;;;;;;;;4993773;28;20019;-76
2021/12/20 07:16:19;;;;;;;18.92;11.52;;;;;;;;;;4996241;28;20085;-75
2021/12/20 07:18:45;;;;;;;23.42;12.60;;;;;;;;;;4994249;28;20105;-76
2021/12/20 07:21:14;;;;;;;22.45;13.23;;;;;;;;;;5003062;28;20026;-75
2021/12/20 07:23:40;;;;;;;21.00;11.57;;;;;;;;;;4995182;28;20041;-77
2021/12/20 07:26:07;;;;;;;22.20;13.77;;;;;;;;;;4994980;28;20529;-75
2021/12/20 07:28:33;;;;;;;25.38;12.60;;;;;;;;;;4994277;28;20030;-75
2021/12/20 07:30:59;;;;;;;28.83;13.27;;;;;;;;;;4982558;28;20019;-75
2021/12/20 07:33:26;;;;;;;29.40;15.15;;;;;;;;;;4983765;28;20182;-74
2021/12/20 07:35:52;;;;;;;25.40;12.43;;;;;;;;;;5008264;28;20149;-76
2021/12/20 07:38:18;;;;;;;24.58;13.30;;;;;;;;;;5004173;28;20022;-76
2021/12/20 07:40:45;;;;;;;24.17;12.60;;;;;;;;;;4990946;28;20030;-76
2021/12/20 07:43:11;;;;;;;22.75;14.75;;;;;;;;;;4995143;28;20116;-76
2021/12/20 07:45:37;;;;;;;25.50;13.07;;;;;;;;;;4999348;28;20037;-75
2021/12/20 07:48:04;;;;;;;26.10;13.45;;;;;;;;;;5002926;28;20027;-76
2021/12/20 07:50:30;;;;;;;23.77;13.73;;;;;;;;;;4985814;28;20026;-77
2021/12/20 07:52:56;;;;;;;24.17;12.90;;;;;;;;;;4998995;28;20050;-76
2021/12/20 07:55:22;;;;;;;18.40;11.40;;;;;;;;;;4995472;28;20114;-77
2021/12/20 07:57:48;;;;;;;22.73;12.73;;;;;;;;;;5003477;28;20409;-77
2021/12/20 08:00:14;;;;;;;23.42;12.55;;;;;;;;;;4994494;28;20023;-77
2021/12/20 08:02:41;;;;;;;24.52;13.18;;;;;;;;;;4995293;28;20389;-76
2021/12/20 08:05:07;;;;;;;20.77;12.02;;;;;;;;;;4995467;28;20505;-76
2021/12/20 08:07:33;;;;;;;34.63;17.90;;;;;;;;;;4999502;28;20030;-76
2021/12/20 08:09:59;;;;;;;24.08;13.57;;;;;;;;;;4987994;28;20034;-80
2021/12/20 08:12:25;;;;;;;27.30;12.70;;;;;;;;;;5000871;28;20069;-74
2021/12/20 08:14:52;;;;;;;26.98;14.27;;;;;;;;;;4994781;28;20023;-75
2021/12/20 08:17:18;;;;;;;23.50;12.98;;;;;;;;;;5001690;28;20053;-74
2021/12/20 08:19:44;;;;;;;25.67;12.93;;;;;;;;;;4992873;28;20374;-75
2021/12/20 08:22:10;;;;;;;25.33;12.52;;;;;;;;;;4985062;28;20045;-74
2021/12/20 08:24:36;;;;;;;26.95;13.43;;;;;;;;;;4986306;28;20113;-72
2021/12/20 08:27:16;;;;;;;24.02;12.85;;;;;;;;;;5004454;28;20037;-75
2021/12/20 08:29:43;;;;;;;32.45;14.98;;;;;;;;;;4997463;28;20026;-76
2021/12/20 08:32:09;;;;;;;21.27;11.57;;;;;;;;;;5000996;28;20038;-76
2021/12/20 08:34:35;;;;;;;24.05;12.45;;;;;;;;;;5003952;28;20045;-76
2021/12/20 08:37:01;;;;;;;20.88;10.25;;;;;;;;;;5002966;28;20084;-76
2021/12/20 08:39:28;;;;;;;26.33;12.27;;;;;;;;;;5003172;28;20378;-75
2021/12/20 08:41:55;;;;;;;18.50;9.00;;;;;;;;;;5013088;28;20441;-73
2021/12/20 08:44:21;;;;;;;19.23;9.55;;;;;;;;;;5004464;28;20045;-76
2021/12/20 08:46:47;;;;;;;14.45;8.10;;;;;;;;;;5003126;28;20519;-75
2021/12/20 08:49:13;;;;;;;16.95;10.60;;;;;;;;;;4998906;28;20034;-74
2021/12/20 08:51:39;;;;;;;20.27;9.90;;;;;;;;;;5005700;28;20107;-75
2021/12/20 08:54:06;;;;;;;15.23;9.05;;;;;;;;;;4993760;28;20587;-75
2021/12/20 08:56:32;;;;;;;15.43;8.68;;;;;;;;;;4977630;28;20106;-77
2021/12/20 08:58:58;;;;;;;14.40;7.45;;;;;;;;;;5009283;28;20042;-76
2021/12/20 09:01:24;;;;;;;13.13;7.30;;;;;;;;;;4999745;28;20490;-75
2021/12/20 09:03:50;;;;;;;16.98;8.50;;;;;;;;;;5003706;28;20377;-75
2021/12/20 09:06:17;;;;;;;16.60;8.27;;;;;;;;;;4997075;28;20112;-76
2021/12/20 09:08:43;;;;;;;21.45;7.80;;;;;;;;;;4992985;28;20030;-75
2021/12/20 09:11:09;;;;;;;16.70;10.77;;;;;;;;;;4990084;28;20406;-77
2021/12/20 09:13:35;;;;;;;15.45;8.20;;;;;;;;;;4987760;28;20030;-76
2021/12/20 09:16:02;;;;;;;12.93;7.25;;;;;;;;;;4992743;28;20653;-77
2021/12/20 09:18:28;;;;;;;12.80;6.80;;;;;;;;;;4989439;28;20109;-76
2021/12/20 09:20:55;;;;;;;14.80;7.05;;;;;;;;;;4993142;28;21668;-78
2021/12/20 09:23:21;;;;;;;13.45;6.57;;;;;;;;;;4997404;28;20061;-76
2021/12/20 09:25:48;;;;;;;16.80;7.28;;;;;;;;;;5009242;28;20057;-76
2021/12/20 09:28:15;;;;;;;23.50;10.73;;;;;;;;;;5014309;28;20449;-75
2021/12/20 09:30:41;;;;;;;42.92;15.02;;;;;;;;;;4987845;28;20030;-75
2021/12/20 09:33:11;;;;;;;51.35;19.63;;;;;;;;;;4992212;28;20049;-75
2021/12/20 09:35:38;;;;;;;14.75;7.60;;;;;;;;;;5020437;28;20030;-76
2021/12/20 09:38:11;;;;;;;10.68;6.60;;;;;;;;;;5015486;28;20025;-75
2021/12/20 09:40:40;;;;;;;12.60;5.70;;;;;;;;;;4992749;28;20105;-77
2021/12/20 09:43:24;;;;;;;11.23;5.55;;;;;;;;;;4993565;28;20033;-76
2021/12/20 09:45:50;;;;;;;9.60;5.82;;;;;;;;;;4993486;28;20037;-76
2021/12/20 09:48:16;;;;;;;7.18;4.78;;;;;;;;;;4997918;28;20076;-75
2021/12/20 09:50:46;;;;;;;13.98;7.95;;;;;;;;;;5000847;28;20076;-75
2021/12/20 09:53:14;;;;;;;13.82;7.40;;;;;;;;;;5016762;28;20084;-76
2021/12/20 09:55:43;;;;;;;9.90;5.13;;;;;;;;;;5000646;28;20030;-76
2021/12/20 09:58:10;;;;;;;7.10;4.80;;;;;;;;;;4984819;28;20124;-76
2021/12/20 10:00:37;;;;;;;10.70;5.03;;;;;;;;;;4984629;28;20038;-75
2021/12/20 10:03:03;;;;;;;10.23;6.03;;;;;;;;;;4984953;28;20065;-75
2021/12/20 10:05:30;;;;;;;14.65;5.40;;;;;;;;;;4982944;28;20034;-75
2021/12/20 10:07:58;;;;;;;6.50;3.92;;;;;;;;;;4986865;28;20090;-76
2021/12/20 10:10:44;;;;;;;9.73;5.05;;;;;;;;;;4988235;28;20030;-75
2021/12/20 10:13:23;;;;;;;9.43;5.28;;;;;;;;;;4979744;28;20034;-75
2021/12/20 10:15:50;;;;;;;11.43;5.63;;;;;;;;;;5011650;28;20093;-74
2021/12/20 10:18:17;;;;;;;8.82;5.30;;;;;;;;;;4986597;28;20038;-74
2021/12/20 10:20:48;;;;;;;10.05;5.20;;;;;;;;;;4993081;28;20414;-74
2021/12/20 10:23:20;;;;;;;8.15;5.15;;;;;;;;;;5000004;28;20037;-74
2021/12/20 10:25:48;;;;;;;9.07;5.55;;;;;;;;;;4998020;28;20033;-75
2021/12/20 10:28:15;;;;;;;10.23;6.43;;;;;;;;;;5011304;28;20025;-76
2021/12/20 10:30:43;;;;;;;9.35;5.03;;;;;;;;;;5023674;28;20025;-76
2021/12/20 10:33:20;;;;;;;10.68;5.18;;;;;;;;;;5011491;28;20113;-75
2021/12/20 10:35:49;;;;;;;7.43;4.35;;;;;;;;;;5003422;28;20028;-77
2021/12/20 10:38:21;;;;;;;9.50;5.63;;;;;;;;;;5011390;28;20048;-76
2021/12/20 10:40:53;;;;;;;7.95;5.45;;;;;;;;;;5009295;28;20045;-76
2021/12/20 10:43:21;;;;;;;7.90;5.03;;;;;;;;;;4988865;28;20030;-74
2021/12/20 10:45:47;;;;;;;10.27;5.85;;;;;;;;;;4998135;28;20080;-76
2021/12/20 10:48:13;;;;;;;8.35;5.63;;;;;;;;;;4996966;28;20442;-74
2021/12/20 10:50:44;;;;;;;8.88;6.28;;;;;;;;;;4983695;28;20026;-74
2021/12/20 10:53:12;;;;;;;9.80;6.45;;;;;;;;;;4986935;28;20034;-77
2021/12/20 10:55:40;;;;;;;9.57;6.82;;;;;;;;;;4998797;28;20481;-72
2021/12/20 10:58:32;;;;;;;11.00;5.97;;;;;;;;;;5000841;28;20057;-73
2021/12/20 11:01:15;;;;;;;7.53;5.38;;;;;;;;;;5015960;28;20067;-73
2021/12/20 11:03:42;;;;;;;10.70;5.90;;;;;;;;;;4994536;28;20023;-70
2021/12/20 11:11:31;;;;;;;12.40;7.90;;;;;;;;;;4990879;28;20041;-75
2021/12/20 11:14:00;;;;;;;7.72;5.80;;;;;;;;;;4989562;28;20081;-76
2021/12/20 11:16:40;;;;;;;10.60;7.68;;;;;;;;;;5006233;28;20030;-75
2021/12/20 11:19:12;;;;;;;10.30;6.65;;;;;;;;;;5021033;28;20038;-74
2021/12/20 11:21:48;;;;;;;11.45;7.57;;;;;;;;;;5005020;28;20034;-76
2021/12/20 11:24:16;;;;;;;12.68;8.13;;;;;;;;;;5003708;28;20362;-74
2021/12/20 11:26:42;;;;;;;10.55;7.53;;;;;;;;;;5017009;28;20062;-75
2021/12/20 11:29:10;;;;;;;13.35;7.68;;;;;;;;;;5008691;28;20506;-76
2021/12/20 11:31:37;;;;;;;13.55;8.63;;;;;;;;;;4995082;28;20113;-75
2021/12/20 11:34:03;;;;;;;13.05;8.48;;;;;;;;;;5005617;28;20022;-76
2021/12/20 11:36:29;;;;;;;11.52;7.95;;;;;;;;;;5012197;28;20025;-74
2021/12/20 11:38:58;;;;;;;13.30;8.93;;;;;;;;;;5005986;28;20033;-74
2021/12/20 11:41:26;;;;;;;16.05;10.05;;;;;;;;;;5002113;28;20030;-75
2021/12/20 11:43:52;;;;;;;15.68;9.77;;;;;;;;;;4999197;28;20030;-76
2021/12/20 11:46:19;;;;;;;13.68;9.77;;;;;;;;;;5006470;28;20035;-73
2021/12/20 11:48:46;;;;;;;14.55;8.90;;;;;;;;;;4996170;28;20030;-76
2021/12/20 11:51:12;;;;;;;14.18;8.73;;;;;;;;;;4997762;28;20026;-78
2021/12/20 11:53:40;;;;;;;13.45;10.38;;;;;;;;;;5005109;28;20057;-74
2021/12/20 11:56:07;;;;;;;16.65;9.98;;;;;;;;;;5002110;28;20030;-77
2021/12/20 11:58:34;;;;;;;14.80;9.52;;;;;;;;;;4996173;28;20091;-75
2021/12/20 12:01:02;;;;;;;14.20;9.25;;;;;;;;;;4982212;28;20117;-74
2021/12/20 12:03:32;;;;;;;14.73;9.48;;;;;;;;;;5002403;28;20038;-73
2021/12/20 12:06:14;;;;;;;16.88;10.77;;;;;;;;;;5001853;28;20031;-75
2021/12/20 12:08:57;;;;;;;18.08;9.40;;;;;;;;;;5003935;28;20034;-76
2021/12/20 12:11:28;;;;;;;12.95;8.38;;;;;;;;;;5019261;28;20052;-76
2021/12/20 12:14:18;;;;;;;11.75;8.35;;;;;;;;;;5021900;28;20033;-73
2021/12/20 12:16:57;;;;;;;16.80;9.75;;;;;;;;;;5002405;28;20078;-76
2021/12/20 12:19:41;;;;;;;14.48;8.57;;;;;;;;;;4998993;28;20030;-78
2021/12/20 12:22:25;;;;;;;12.05;9.90;;;;;;;;;;5004131;28;20193;-75
2021/12/20 12:24:51;;;;;;;13.55;9.75;;;;;;;;;;5013551;28;20026;-76
2021/12/20 12:27:26;;;;;;;11.23;9.27;;;;;;;;;;5008241;28;20038;-75
2021/12/20 12:30:12;;;;;;;15.13;9.20;;;;;;;;;;4983513;28;20062;-75
2021/12/20 12:32:58;;;;;;;15.38;9.15;;;;;;;;;;4998407;28;20026;-75
2021/12/20 12:35:39;;;;;;;11.60;8.45;;;;;;;;;;4994158;28;20043;-77
2021/12/20 12:38:19;;;;;;;15.45;9.73;;;;;;;;;;4994571;28;20026;-75
2021/12/20 12:40:49;;;;;;;14.82;8.52;;;;;;;;;;5003252;28;20076;-76
2021/12/20 12:43:15;;;;;;;15.27;10.65;;;;;;;;;;4992554;28;20030;-75
2021/12/20 12:45:48;;;;;;;12.05;8.85;;;;;;;;;;4999668;28;20533;-76
2021/12/20 12:48:33;;;;;;;12.45;9.43;;;;;;;;;;4999604;28;20026;-74
2021/12/20 12:51:04;;;;;;;12.95;9.05;;;;;;;;;;5010373;28;20083;-75
2021/12/20 12:53:43;;;;;;;18.77;9.73;;;;;;;;;;4991938;28;20027;-76
2021/12/20 12:56:25;;;;;;;16.40;10.23;;;;;;;;;;5011612;28;20039;-76
2021/12/20 12:59:26;;;;;;;18.30;10.75;;;;;;;;;;4994783;28;20034;-75
2021/12/20 13:01:56;;;;;;;14.13;9.80;;;;;;;;;;4938199;29;20035;-76
2021/12/20 13:04:42;;;;;;;12.57;8.73;;;;;;;;;;4978439;28;20039;-76
2021/12/20 13:07:08;;;;;;;;;;;;;;;;;;4972117;28;20069;-76
2021/12/20 13:09:42;;;;;;;14.38;9.43;;;;;;;;;;4971605;28;19968;-75
2021/12/20 13:12:20;;;;;;;18.25;9.02;;;;;;;;;;4977195;28;20065;-76
2021/12/20 13:15:09;;;;;;;17.33;9.05;;;;;;;;;;4971076;28;20110;-77
2021/12/20 13:17:38;;;;;;;14.52;8.43;;;;;;;;;;4984800;28;20026;-75
2021/12/20 13:20:19;;;;;;;13.30;9.18;;;;;;;;;;4988901;28;20475;-75
2021/12/20 13:22:59;;;;;;;13.85;8.85;;;;;;;;;;4978072;28;20388;-76
2021/12/20 13:25:52;;;;;;;25.17;13.73;;;;;;;;;;4987042;28;20054;-75
2021/12/20 13:28:35;;;;;;;14.32;9.48;;;;;;;;;;4991442;28;20046;-75
2021/12/20 13:31:02;;;;;;;18.52;9.30;;;;;;;;;;5014097;28;20481;-76
2021/12/20 13:33:33;;;;;;;21.17;12.45;;;;;;;;;;4995628;28;20100;-76
2021/12/20 13:36:04;;;;;;;16.38;9.98;;;;;;;;;;4991952;28;20022;-75
2021/12/20 13:38:32;;;;;;;25.23;13.98;;;;;;;;;;4976576;28;20042;-76
2021/12/20 13:41:00;;;;;;;25.88;14.23;;;;;;;;;;4989215;28;20037;-75
2021/12/20 13:43:37;;;;;;;21.23;12.82;;;;;;;;;;4995116;28;20788;-76
2021/12/20 13:46:17;;;;;;;17.67;9.40;;;;;;;;;;4977134;28;20030;-76
2021/12/20 13:48:47;;;;;;;15.13;9.65;;;;;;;;;;4980952;28;20031;-77
2021/12/20 13:51:14;;;;;;;16.08;9.82;;;;;;;;;;4986946;28;20030;-76
2021/12/20 13:53:40;;;;;;;15.57;10.55;;;;;;;;;;4990862;28;20034;-78
2021/12/20 13:56:07;;;;;;;19.10;11.73;;;;;;;;;;4975528;28;20035;-75
2021/12/20 13:58:33;;;;;;;18.88;11.02;;;;;;;;;;4980537;28;20050;-75
2021/12/20 14:00:59;;;;;;;15.93;10.70;;;;;;;;;;4987006;28;20194;-75
2021/12/20 14:03:26;;;;;;;17.77;10.23;;;;;;;;;;4977472;28;20110;-73
2021/12/20 14:05:52;;;;;;;19.25;10.85;;;;;;;;;;4990958;28;20033;-75
2021/12/20 14:08:26;;;;;;;19.23;11.57;;;;;;;;;;5015291;28;20485;-76
2021/12/20 14:10:53;;;;;;;16.23;10.15;;;;;;;;;;5002343;28;20485;-77
2021/12/20 14:13:20;;;;;;;15.15;10.48;;;;;;;;;;4997344;28;20057;-75
2021/12/20 14:15:48;;;;;;;17.08;10.20;;;;;;;;;;4998353;28;20046;-74
2021/12/20 14:18:19;;;;;;;17.58;10.60;;;;;;;;;;4993709;28;20019;-76
2021/12/20 14:20:57;;;;;;;14.52;9.93;;;;;;;;;;4988550;28;20056;-77
2021/12/20 14:23:24;;;;;;;11.60;8.35;;;;;;;;;;4998978;28;20026;-76
2021/12/20 14:26:02;;;;;;;11.05;7.20;;;;;;;;;;4984936;28;20398;-74
2021/12/20 14:28:29;;;;;;;10.90;6.82;;;;;;;;;;4988380;28;20046;-72
2021/12/20 14:30:57;;;;;;;9.57;6.35;;;;;;;;;;4997139;28;20026;-74
2021/12/20 14:33:27;;;;;;;9.63;6.57;;;;;;;;;;5001193;28;20101;-74
2021/12/20 14:36:03;;;;;;;7.50;5.07;;;;;;;;;;5001475;28;20018;-74
2021/12/20 14:38:29;;;;;;;;;;;;;;;;;;4985125;28;20143;-77
2021/12/20 14:40:55;;;;;;;12.68;8.45;;;;;;;;;;4987608;28;19914;-75
2021/12/20 14:43:22;;;;;;;11.38;6.70;;;;;;;;;;4998887;28;20034;-76
2021/12/20 14:46:09;;;;;;;16.50;9.63;;;;;;;;;;5001456;28;20034;-76
2021/12/20 14:48:47;;;;;;;8.70;6.88;;;;;;;;;;4988059;28;20022;-77
2021/12/20 14:51:17;;;;;;;16.80;9.95;;;;;;;;;;5002402;28;20038;-76